createdAt,value
2022-11-12T00:01:39.235Z,69.86
2022-11-12T00:04:24.721Z,70.30
2022-11-12T00:07:10.251Z,71.03
2022-11-12T00:09:55.871Z,70.98
2022-11-12T00:12:41.573Z,71.61
2022-11-12T00:15:27.242Z,71.76
2022-11-12T00:18:13.804Z,71.99
2022-11-12T00:20:59.449Z,72.39
2022-11-12T00:23:44.866Z,72.36
2022-11-12T00:26:30.624Z,72.08
2022-11-12T00:29:16.097Z,72.46
2022-11-12T00:32:01.519Z,72.78
2022-11-12T00:34:46.935Z,72.56
2022-11-12T00:37:32.814Z,72.34
2022-11-12T00:40:18.651Z,72.03
2022-11-12T00:43:04.076Z,72.46
2022-11-12T00:45:49.707Z,71.93
2022-11-12T00:48:35.053Z,71.99
2022-11-12T00:51:20.961Z,71.71
2022-11-12T00:54:06.622Z,72.12
2022-11-12T00:56:51.864Z,72.34
2022-11-12T00:59:37.615Z,73.17
2022-11-12T01:02:22.957Z,73.46
2022-11-12T01:05:08.751Z,73.42
2022-11-12T01:07:56.160Z,73.41
2022-11-12T01:10:41.834Z,73.61
2022-11-12T01:13:27.485Z,73.45
2022-11-12T01:16:20.011Z,73.69
2022-11-12T01:19:08.358Z,73.38
2022-11-12T01:21:53.486Z,74.58
2022-11-12T01:24:38.747Z,74.00
2022-11-12T01:27:24.543Z,74.00
2022-11-12T01:30:10.923Z,73.45
2022-11-12T01:32:57.334Z,73.00
2022-11-12T01:35:42.814Z,73.02
2022-11-12T01:38:28.787Z,72.43
2022-11-12T01:41:23.467Z,72.17
2022-11-12T01:44:12.459Z,72.77
2022-11-12T01:47:12.030Z,72.64
2022-11-12T01:50:19.809Z,73.07
2022-11-12T01:53:10.214Z,72.56
2022-11-12T01:55:57.063Z,72.75
2022-11-12T01:58:44.231Z,73.10
2022-11-12T02:01:30.251Z,72.78
2022-11-12T02:04:16.942Z,72.90
2022-11-12T02:07:03.647Z,73.42
2022-11-12T02:09:49.033Z,73.62
2022-11-12T02:12:53.537Z,73.60
2022-11-12T02:15:41.397Z,73.84
2022-11-12T02:18:27.503Z,73.56
2022-11-12T02:21:13.065Z,74.65
2022-11-12T02:24:21.500Z,74.08
2022-11-12T02:27:07.880Z,74.44
2022-11-12T02:29:53.504Z,74.56
2022-11-12T02:32:39.252Z,74.58
2022-11-12T02:35:24.997Z,74.57
2022-11-12T02:38:10.968Z,74.26
2022-11-12T02:40:56.664Z,74.12
2022-11-12T02:43:42.349Z,74.24
2022-11-12T02:46:27.822Z,74.06
2022-11-12T02:49:13.541Z,73.84
2022-11-12T02:51:58.589Z,73.90
2022-11-12T02:54:44.352Z,74.19
2022-11-12T02:57:30.455Z,74.03
2022-11-12T03:00:16.203Z,73.51
2022-11-12T03:03:02.723Z,73.29
2022-11-12T03:06:00.026Z,73.47
2022-11-12T03:08:45.798Z,73.46
2022-11-12T03:11:31.167Z,73.33
2022-11-12T03:14:16.966Z,73.06
2022-11-12T03:17:02.376Z,73.44
2022-11-12T03:19:49.078Z,72.56
2022-11-12T03:22:34.889Z,72.61
2022-11-12T03:25:20.528Z,73.07
2022-11-12T03:28:09.320Z,72.95
2022-11-12T03:30:58.931Z,72.65
2022-11-12T03:33:44.934Z,72.61
2022-11-12T03:36:30.455Z,73.07
2022-11-12T03:39:16.156Z,73.05
2022-11-12T03:42:02.250Z,73.29
2022-11-12T03:44:47.714Z,72.73
2022-11-12T03:47:33.547Z,73.12
2022-11-12T03:50:21.589Z,72.96
2022-11-12T03:53:08.230Z,72.96
2022-11-12T03:55:53.673Z,72.81
2022-11-12T03:58:39.297Z,72.90
2022-11-12T04:01:24.983Z,73.55
2022-11-12T04:04:13.681Z,73.33
2022-11-12T04:07:17.892Z,73.38
2022-11-12T04:10:03.869Z,73.29
2022-11-12T04:13:08.275Z,73.56
2022-11-12T04:16:14.100Z,73.09
2022-11-12T04:19:20.648Z,72.87
2022-11-12T04:22:11.152Z,73.14
2022-11-12T04:25:15.585Z,73.14
2022-11-12T04:28:01.319Z,72.41
2022-11-12T04:30:46.972Z,72.62
2022-11-12T04:33:32.423Z,72.86
2022-11-12T04:36:18.594Z,72.29
2022-11-12T04:39:04.115Z,72.21
2022-11-12T04:42:07.964Z,72.29
2022-11-12T04:45:04.175Z,72.64
2022-11-12T04:47:49.755Z,72.33
2022-11-12T04:50:35.577Z,72.04
2022-11-12T04:53:21.902Z,71.99
2022-11-12T04:56:09.835Z,71.80
2022-11-12T04:58:55.094Z,71.24
2022-11-12T05:01:40.368Z,71.84
2022-11-12T05:04:28.873Z,71.77
2022-11-12T05:07:18.569Z,71.99
2022-11-12T05:10:04.242Z,71.30
2022-11-12T05:12:49.954Z,71.60
2022-11-12T05:15:35.602Z,71.19
2022-11-12T05:18:21.122Z,71.25
2022-11-12T05:21:26.799Z,71.52
2022-11-12T05:24:27.727Z,71.28
2022-11-12T05:27:21.502Z,71.14
2022-11-12T05:30:08.005Z,71.39
2022-11-12T05:32:53.715Z,71.43
2022-11-12T05:35:38.791Z,71.72
2022-11-12T05:38:24.331Z,71.63
2022-11-12T05:41:10.362Z,71.39
2022-11-12T05:43:56.120Z,71.50
2022-11-12T05:46:41.987Z,71.16
2022-11-12T05:49:27.762Z,71.12
2022-11-12T05:52:13.664Z,71.12
2022-11-12T05:54:59.377Z,70.90
2022-11-12T05:57:44.843Z,70.88
2022-11-12T06:00:30.465Z,71.28
2022-11-12T06:03:16.005Z,70.98
2022-11-12T06:06:01.575Z,70.93
2022-11-12T06:08:47.112Z,70.68
2022-11-12T06:11:33.294Z,70.75
2022-11-12T06:14:18.879Z,70.30
2022-11-12T06:17:04.232Z,70.33
2022-11-12T06:19:49.789Z,70.74
2022-11-12T06:22:35.474Z,70.79
2022-11-12T06:25:20.762Z,70.61
2022-11-12T06:28:06.165Z,70.18
2022-11-12T06:30:51.335Z,70.39
2022-11-12T06:33:36.509Z,70.24
2022-11-12T06:36:22.106Z,70.52
2022-11-12T06:39:09.553Z,70.40
2022-11-12T06:41:55.088Z,70.77
2022-11-12T06:44:41.267Z,70.45
2022-11-12T06:47:29.776Z,70.13
2022-11-12T06:50:15.810Z,69.34
2022-11-12T06:53:01.309Z,69.73
2022-11-12T06:55:46.547Z,69.53
2022-11-12T06:58:32.231Z,69.37
2022-11-12T07:01:18.230Z,69.13
2022-11-12T07:04:07.623Z,69.20
2022-11-12T07:06:56.687Z,69.32
2022-11-12T07:09:42.383Z,69.52
2022-11-12T07:12:28.279Z,69.03
2022-11-12T07:15:19.350Z,68.93
2022-11-12T07:18:04.830Z,68.61
2022-11-12T07:20:50.372Z,68.23
2022-11-12T07:23:37.367Z,68.32
2022-11-12T07:26:25.085Z,68.24
2022-11-12T07:29:10.743Z,67.87
2022-11-12T07:31:56.241Z,67.86
2022-11-12T07:34:41.577Z,68.22
2022-11-12T07:37:26.786Z,68.18
2022-11-12T07:40:12.261Z,68.36
2022-11-12T07:42:59.564Z,67.40
2022-11-12T07:45:44.765Z,67.75
2022-11-12T07:48:31.365Z,68.12
2022-11-12T07:51:20.148Z,68.23
2022-11-12T07:54:05.458Z,67.89
2022-11-12T07:56:50.898Z,68.10
2022-11-12T07:59:37.919Z,67.61
2022-11-12T08:02:26.638Z,67.84
2022-11-12T08:05:17.577Z,67.82
2022-11-12T08:08:06.496Z,67.81
2022-11-12T08:10:59.138Z,67.73
2022-11-12T08:13:45.600Z,67.89
2022-11-12T08:16:31.315Z,67.93
2022-11-12T08:19:16.811Z,67.46
2022-11-12T08:22:02.050Z,67.45
2022-11-12T08:24:47.655Z,66.85
2022-11-12T08:27:33.889Z,67.36
2022-11-12T08:30:26.968Z,67.34
2022-11-12T08:33:12.329Z,67.38
2022-11-12T08:35:58.066Z,67.38
2022-11-12T08:38:44.233Z,67.27
2022-11-12T08:41:29.549Z,66.79
2022-11-12T08:44:15.154Z,66.74
2022-11-12T08:47:01.219Z,67.05
2022-11-12T08:49:48.193Z,67.48
2022-11-12T08:52:34.186Z,67.10
2022-11-12T08:55:19.765Z,67.87
2022-11-12T08:58:05.891Z,67.64
2022-11-12T09:00:52.234Z,68.26
2022-11-12T09:03:37.763Z,67.76
2022-11-12T09:06:23.505Z,67.69
2022-11-12T09:09:09.601Z,67.91
2022-11-12T09:11:55.220Z,67.67
2022-11-12T09:14:40.535Z,68.33
2022-11-12T09:17:26.236Z,67.74
2022-11-12T09:20:11.823Z,67.65
2022-11-12T09:23:06.574Z,67.93
2022-11-12T09:25:54.258Z,67.85
2022-11-12T09:28:40.089Z,67.91
2022-11-12T09:31:28.678Z,68.10
2022-11-12T09:34:14.077Z,68.27
2022-11-12T09:36:59.647Z,68.43
2022-11-12T09:39:45.638Z,68.60
2022-11-12T09:42:35.708Z,68.42
2022-11-12T09:45:30.198Z,68.33
2022-11-12T09:48:22.990Z,67.85
2022-11-12T09:51:28.732Z,68.01
2022-11-12T09:54:20.250Z,68.18
2022-11-12T09:57:10.323Z,68.76
2022-11-12T09:59:57.317Z,68.02
2022-11-12T10:03:15.113Z,68.29
2022-11-12T10:06:10.730Z,68.38
2022-11-12T10:08:56.268Z,68.60
2022-11-12T10:12:09.170Z,68.75
2022-11-12T10:15:30.097Z,68.78
2022-11-12T10:18:21.170Z,69.07
2022-11-12T10:21:31.812Z,69.13
2022-11-12T10:24:20.791Z,68.76
2022-11-12T10:27:18.445Z,68.52
2022-11-12T10:30:18.559Z,68.75
2022-11-12T10:33:04.269Z,68.73
2022-11-12T10:35:52.914Z,68.71
2022-11-12T10:38:38.793Z,69.20
2022-11-12T10:41:28.247Z,69.26
2022-11-12T10:44:17.769Z,68.91
2022-11-12T10:47:21.914Z,68.79
2022-11-12T10:50:10.438Z,68.55
2022-11-12T10:53:07.709Z,68.90
2022-11-12T10:55:59.702Z,68.11
2022-11-12T10:58:45.368Z,68.40
2022-11-12T11:01:35.703Z,68.54
2022-11-12T11:04:37.333Z,69.21
2022-11-12T11:07:25.579Z,69.96
2022-11-12T11:10:31.134Z,69.93
2022-11-12T11:13:27.479Z,70.25
2022-11-12T11:16:28.251Z,70.35
2022-11-12T11:19:13.774Z,70.85
2022-11-12T11:22:13.457Z,70.91
2022-11-12T11:25:02.038Z,70.77
2022-11-12T11:28:07.643Z,71.12
2022-11-12T11:31:31.729Z,70.91
2022-11-12T11:34:23.955Z,71.01
2022-11-12T11:37:24.430Z,71.29
2022-11-12T11:40:26.880Z,71.66
2022-11-12T11:43:24.130Z,71.81
2022-11-12T11:46:12.553Z,72.40
2022-11-12T11:49:13.832Z,72.74
2022-11-12T11:52:08.209Z,72.91
2022-11-12T11:55:19.963Z,72.72
2022-11-12T11:58:27.771Z,72.77
2022-11-12T12:01:29.007Z,73.11
2022-11-12T12:04:32.997Z,73.38
2022-11-12T12:07:45.930Z,73.06
2022-11-12T12:11:08.173Z,73.86
2022-11-12T12:14:15.839Z,73.87
2022-11-12T12:17:02.753Z,73.95
2022-11-12T12:20:03.200Z,74.19
2022-11-12T12:23:02.901Z,74.50
2022-11-12T12:25:49.887Z,74.53
2022-11-12T12:29:01.945Z,75.58
2022-11-12T12:31:55.181Z,75.29
2022-11-12T12:34:47.801Z,75.11
2022-11-12T12:37:53.202Z,74.86
2022-11-12T12:41:01.980Z,75.27
2022-11-12T12:43:54.391Z,75.57
2022-11-12T12:46:52.063Z,75.38
2022-11-12T12:49:39.761Z,75.70
2022-11-12T12:52:25.187Z,75.47
2022-11-12T12:55:34.585Z,75.42
2022-11-12T12:58:41.434Z,75.19
2022-11-12T13:01:34.334Z,75.12
2022-11-12T13:04:50.707Z,74.86
2022-11-12T13:07:50.886Z,74.50
2022-11-12T13:10:39.396Z,74.58
2022-11-12T13:13:31.887Z,74.79
2022-11-12T13:16:56.596Z,74.74
2022-11-12T13:20:11.101Z,74.88
2022-11-12T13:22:56.913Z,75.02
2022-11-12T13:25:42.521Z,75.03
2022-11-12T13:28:28.707Z,74.87
2022-11-12T13:31:27.637Z,74.85
2022-11-12T13:34:19.637Z,75.08
2022-11-12T13:37:06.453Z,75.25
2022-11-12T13:39:52.250Z,74.98
2022-11-12T13:42:49.938Z,74.72
2022-11-12T13:45:46.638Z,74.95
2022-11-12T13:48:53.827Z,74.56
2022-11-12T13:51:45.784Z,74.63
2022-11-12T13:54:31.309Z,74.53
2022-11-12T13:57:27.736Z,74.43
2022-11-12T14:00:20.416Z,74.34
2022-11-12T14:03:08.147Z,74.52
2022-11-12T14:05:54.748Z,74.62
2022-11-12T14:08:55.921Z,75.08
2022-11-12T14:12:02.052Z,75.40
2022-11-12T14:15:17.863Z,75.33
2022-11-12T14:18:12.175Z,75.39
2022-11-12T14:20:57.712Z,75.17
2022-11-12T14:23:48.004Z,75.57
2022-11-12T14:26:42.578Z,75.59
2022-11-12T14:29:34.095Z,75.52
2022-11-12T14:32:21.005Z,75.53
2022-11-12T14:35:30.574Z,75.71
2022-11-12T14:38:19.434Z,75.77
2022-11-12T14:41:26.277Z,75.86
2022-11-12T14:44:19.241Z,76.28
2022-11-12T14:47:04.956Z,75.79
2022-11-12T14:49:50.904Z,75.51
2022-11-12T14:52:44.007Z,75.44
2022-11-12T14:55:36.218Z,75.63
2022-11-12T14:58:24.313Z,75.58
2022-11-12T15:01:47.785Z,75.51
2022-11-12T15:04:26.121Z,75.13
2022-11-12T15:07:31.202Z,75.36
2022-11-12T15:10:41.183Z,75.05
2022-11-12T15:13:27.769Z,75.10
2022-11-12T15:16:21.412Z,74.56
2022-11-12T15:19:16.015Z,74.95
2022-11-12T15:22:04.433Z,74.71
2022-11-12T15:24:50.203Z,74.68
2022-11-12T15:27:38.133Z,74.66
2022-11-12T15:30:26.664Z,74.84
2022-11-12T15:33:12.078Z,74.80
2022-11-12T15:36:00.392Z,74.91
2022-11-12T15:38:51.705Z,74.65
2022-11-12T15:41:37.386Z,74.91
2022-11-12T15:44:22.607Z,74.76
2022-11-12T15:47:15.625Z,74.41
2022-11-12T15:50:01.245Z,74.12
2022-11-12T15:52:47.135Z,74.17
2022-11-12T15:55:33.579Z,73.82
2022-11-12T15:58:27.553Z,74.00
2022-11-12T16:01:13.281Z,73.58
2022-11-12T16:03:59.259Z,72.68
2022-11-12T16:06:44.878Z,72.61
2022-11-12T16:09:30.557Z,72.57
2022-11-12T16:12:16.324Z,72.21
2022-11-12T16:15:02.379Z,72.08
2022-11-12T16:17:48.675Z,72.22
2022-11-12T16:20:36.434Z,72.34
2022-11-12T16:23:21.935Z,71.95
2022-11-12T16:26:09.630Z,71.98
2022-11-12T16:28:54.863Z,71.35
2022-11-12T16:31:46.179Z,71.42
2022-11-12T16:34:31.726Z,70.00
2022-11-12T16:37:17.368Z,70.17
2022-11-12T16:40:02.896Z,69.86
2022-11-12T16:42:48.897Z,69.06
2022-11-12T16:45:38.596Z,68.34
2022-11-12T16:48:24.490Z,68.78
2022-11-12T16:51:16.787Z,68.31
2022-11-12T16:54:02.706Z,66.92
2022-11-12T16:56:49.166Z,67.41
2022-11-12T16:59:34.805Z,67.29
2022-11-12T17:02:20.508Z,66.71
2022-11-12T17:05:15.326Z,66.88
2022-11-12T17:08:01.298Z,65.91
2022-11-12T17:10:47.034Z,65.65
2022-11-12T17:13:32.915Z,65.57
2022-11-12T17:16:18.570Z,65.81
2022-11-12T17:19:05.190Z,66.17
2022-11-12T17:21:50.968Z,66.10
2022-11-12T17:24:36.678Z,66.77
2022-11-12T17:27:22.650Z,66.13
2022-11-12T17:30:08.727Z,66.46
2022-11-12T17:32:54.452Z,65.69
2022-11-12T17:35:40.384Z,66.01
2022-11-12T17:38:25.741Z,65.92
2022-11-12T17:41:12.330Z,65.36
2022-11-12T17:44:00.695Z,65.61
2022-11-12T17:46:47.561Z,65.36
2022-11-12T17:49:33.179Z,65.62
2022-11-12T17:52:19.015Z,65.58
2022-11-12T17:55:04.708Z,64.88
2022-11-12T17:57:53.241Z,64.92
2022-11-12T18:00:39.252Z,64.43
2022-11-12T18:03:24.867Z,64.64
2022-11-12T18:06:12.832Z,64.40
2022-11-12T18:09:02.116Z,64.00
2022-11-12T18:11:50.171Z,64.26
2022-11-12T18:14:35.968Z,64.03
2022-11-12T18:17:21.662Z,64.19
2022-11-12T18:20:07.753Z,63.57
2022-11-12T18:22:53.408Z,63.81
2022-11-12T18:25:38.804Z,63.68
2022-11-12T18:28:24.734Z,63.11
2022-11-12T18:31:12.429Z,63.33
2022-11-12T18:34:01.275Z,63.14
2022-11-12T18:36:47.347Z,63.40
2022-11-12T18:39:33.175Z,63.00
2022-11-12T18:42:19.539Z,63.15
2022-11-12T18:45:06.019Z,63.05
2022-11-12T18:47:51.866Z,62.81
2022-11-12T18:50:37.611Z,62.60
2022-11-12T18:53:23.135Z,62.80
2022-11-12T18:56:13.108Z,62.20
2022-11-12T18:58:58.973Z,61.64
2022-11-12T19:01:44.698Z,61.84
2022-11-12T19:04:31.266Z,62.13
2022-11-12T19:07:17.331Z,62.01
2022-11-12T19:10:14.722Z,62.40
2022-11-12T19:13:04.040Z,62.17
2022-11-12T19:15:49.790Z,62.17
2022-11-12T19:18:35.493Z,62.15
2022-11-12T19:21:23.936Z,61.77
2022-11-12T19:24:12.793Z,61.42
2022-11-12T19:26:58.137Z,61.07
2022-11-12T19:29:44.083Z,60.38
2022-11-12T19:32:30.778Z,60.45
2022-11-12T19:35:18.424Z,60.28
2022-11-12T19:38:04.459Z,59.91
2022-11-12T19:40:49.845Z,60.08
2022-11-12T19:43:36.121Z,59.84
2022-11-12T19:46:21.867Z,59.68
2022-11-12T19:49:08.057Z,59.84
2022-11-12T19:51:53.803Z,58.98
2022-11-12T19:54:39.403Z,58.64
2022-11-12T19:57:34.939Z,58.69
2022-11-12T20:00:23.970Z,58.87
2022-11-12T20:03:17.846Z,58.50
2022-11-12T20:06:10.810Z,57.77
2022-11-12T20:09:00.111Z,57.95
2022-11-12T20:11:46.111Z,58.44
2022-11-12T20:14:39.232Z,58.33
2022-11-12T20:17:42.515Z,58.17
2022-11-12T20:20:28.530Z,57.81
2022-11-12T20:23:14.158Z,57.92
2022-11-12T20:26:08.497Z,58.01
2022-11-12T20:28:54.262Z,57.84
2022-11-12T20:31:42.013Z,57.59
2022-11-12T20:34:27.528Z,57.88
2022-11-12T20:37:13.341Z,58.07
2022-11-12T20:39:59.005Z,58.21
2022-11-12T20:42:46.149Z,58.14
2022-11-12T20:45:31.665Z,58.22
2022-11-12T20:48:17.087Z,58.36
2022-11-12T20:51:25.558Z,58.22
2022-11-12T20:54:11.473Z,58.87
2022-11-12T20:57:01.272Z,58.64
2022-11-12T20:59:49.170Z,58.81
2022-11-12T21:02:37.032Z,58.99
2022-11-12T21:05:22.861Z,59.11
2022-11-12T21:08:08.346Z,58.92
2022-11-12T21:10:54.419Z,59.06
2022-11-12T21:13:40.835Z,59.18
2022-11-12T21:16:29.109Z,58.88
2022-11-12T21:19:18.953Z,59.11
2022-11-12T21:22:04.859Z,59.08
2022-11-12T21:24:50.767Z,59.41
2022-11-12T21:27:35.984Z,60.85
2022-11-12T21:30:21.644Z,64.88
2022-11-12T21:33:07.404Z,60.94
2022-11-12T21:35:55.331Z,58.69
2022-11-12T21:38:47.411Z,57.97
2022-11-12T21:41:33.183Z,58.21
2022-11-12T21:44:19.033Z,58.60
2022-11-12T21:47:04.844Z,58.76
2022-11-12T21:49:51.153Z,58.93
2022-11-12T21:52:36.916Z,58.85
2022-11-12T21:55:24.783Z,58.67
2022-11-12T21:58:10.474Z,58.15
2022-11-12T22:00:56.294Z,58.19
2022-11-12T22:03:42.104Z,58.27
2022-11-12T22:06:36.331Z,57.86
2022-11-12T22:09:22.206Z,58.24
2022-11-12T22:12:07.632Z,57.17
2022-11-12T22:14:59.488Z,56.78
2022-11-12T22:17:45.324Z,56.50
2022-11-12T22:20:30.978Z,55.54
2022-11-12T22:23:16.411Z,55.74
2022-11-12T22:26:03.910Z,55.43
2022-11-12T22:28:50.185Z,55.21
2022-11-12T22:31:35.985Z,54.56
2022-11-12T22:34:21.802Z,54.35
2022-11-12T22:37:09.396Z,54.10
2022-11-12T22:39:55.252Z,54.57
2022-11-12T22:42:40.843Z,54.89
2022-11-12T22:45:26.408Z,55.09
2022-11-12T22:48:12.150Z,55.05
2022-11-12T22:51:04.644Z,54.79
2022-11-12T22:53:55.401Z,54.55
2022-11-12T22:56:41.201Z,53.41
2022-11-12T22:59:26.939Z,53.44
2022-11-12T23:02:12.486Z,52.48
2022-11-12T23:04:57.850Z,51.61
2022-11-12T23:07:44.409Z,51.25
2022-11-12T23:10:31.978Z,51.95
2022-11-12T23:13:17.522Z,51.30
2022-11-12T23:16:07.386Z,51.38
2022-11-12T23:18:54.938Z,50.37
2022-11-12T23:21:40.387Z,51.32
2022-11-12T23:24:26.052Z,50.62
2022-11-12T23:27:11.641Z,49.66
2022-11-12T23:29:57.409Z,49.87
2022-11-12T23:32:43.151Z,49.72
2022-11-12T23:35:30.125Z,49.33
2022-11-12T23:38:15.625Z,49.67
2022-11-12T23:41:04.402Z,49.47
2022-11-12T23:43:50.397Z,49.08
2022-11-12T23:46:35.665Z,49.54
2022-11-12T23:49:21.240Z,49.09
2022-11-12T23:52:06.589Z,49.56
2022-11-12T23:54:52.302Z,49.19
2022-11-12T23:57:37.975Z,48.95
